sensor_id;sensor_type;location;lat;lon;timestamp;P1;durP1;ratioP1;P2;durP2;ratioP2
3175;SDS011;1599;51.564;6.990;2023-10-19T00:01:13;17.80;;;10.50;;
3175;SDS011;1599;51.564;6.990;2023-10-19T00:03:40;12.20;;;9.87;;
3175;SDS011;1599;51.564;6.990;2023-10-19T00:06:09;14.70;;;9.80;;
3175;SDS011;1599;51.564;6.990;2023-10-19T00:08:36;14.10;;;10.23;;
3175;SDS011;1599;51.564;6.990;2023-10-19T00:11:11;16.53;;;10.83;;
3175;SDS011;1599;51.564;6.990;2023-10-19T00:13:47;14.23;;;9.37;;
3175;SDS011;1599;51.564;6.990;2023-10-19T00:16:18;13.13;;;9.97;;
3175;SDS011;1599;51.564;6.990;2023-10-19T00:19:00;13.37;;;9.53;;
3175;SDS011;1599;51.564;6.990;2023-10-19T00:21:28;13.70;;;10.23;;
3175;SDS011;1599;51.564;6.990;2023-10-19T00:23:55;15.23;;;9.03;;
3175;SDS011;1599;51.564;6.990;2023-10-19T00:26:23;12.97;;;8.80;;
3175;SDS011;1599;51.564;6.990;2023-10-19T00:28:50;15.13;;;11.03;;
3175;SDS011;1599;51.564;6.990;2023-10-19T00:31:23;13.67;;;10.30;;
3175;SDS011;1599;51.564;6.990;2023-10-19T00:33:52;13.77;;;9.57;;
3175;SDS011;1599;51.564;6.990;2023-10-19T00:36:19;20.63;;;11.20;;
3175;SDS011;1599;51.564;6.990;2023-10-19T00:38:47;18.73;;;11.40;;
3175;SDS011;1599;51.564;6.990;2023-10-19T00:41:20;16.53;;;11.20;;
3175;SDS011;1599;51.564;6.990;2023-10-19T00:43:54;15.50;;;10.80;;
3175;SDS011;1599;51.564;6.990;2023-10-19T00:46:35;17.03;;;11.73;;
3175;SDS011;1599;51.564;6.990;2023-10-19T00:49:11;18.20;;;11.30;;
3175;SDS011;1599;51.564;6.990;2023-10-19T00:51:40;14.13;;;10.30;;
3175;SDS011;1599;51.564;6.990;2023-10-19T00:54:22;21.73;;;11.67;;
3175;SDS011;1599;51.564;6.990;2023-10-19T00:56:57;20.47;;;12.30;;
3175;SDS011;1599;51.564;6.990;2023-10-19T00:59:33;32.10;;;12.60;;
3175;SDS011;1599;51.564;6.990;2023-10-19T01:02:08;14.60;;;10.30;;
3175;SDS011;1599;51.564;6.990;2023-10-19T01:04:49;17.27;;;11.10;;
3175;SDS011;1599;51.564;6.990;2023-10-19T01:07:31;21.40;;;11.87;;
3175;SDS011;1599;51.564;6.990;2023-10-19T01:10:02;14.87;;;11.53;;
3175;SDS011;1599;51.564;6.990;2023-10-19T01:12:46;21.57;;;11.87;;
3175;SDS011;1599;51.564;6.990;2023-10-19T01:17:49;17.80;;;11.40;;
3175;SDS011;1599;51.564;6.990;2023-10-19T01:20:19;25.90;;;11.37;;
3175;SDS011;1599;51.564;6.990;2023-10-19T01:22:56;15.13;;;10.60;;
3175;SDS011;1599;51.564;6.990;2023-10-19T01:25:50;19.10;;;11.50;;
3175;SDS011;1599;51.564;6.990;2023-10-19T01:28:27;29.70;;;13.23;;
3175;SDS011;1599;51.564;6.990;2023-10-19T01:31:10;17.00;;;11.70;;
3175;SDS011;1599;51.564;6.990;2023-10-19T01:34:01;17.63;;;10.57;;
3175;SDS011;1599;51.564;6.990;2023-10-19T01:36:31;20.50;;;12.50;;
3175;SDS011;1599;51.564;6.990;2023-10-19T01:39:23;24.93;;;13.93;;
3175;SDS011;1599;51.564;6.990;2023-10-19T01:41:50;17.57;;;11.23;;
3175;SDS011;1599;51.564;6.990;2023-10-19T01:44:16;18.60;;;11.90;;
3175;SDS011;1599;51.564;6.990;2023-10-19T01:46:42;17.73;;;12.27;;
3175;SDS011;1599;51.564;6.990;2023-10-19T01:49:10;18.13;;;11.77;;
3175;SDS011;1599;51.564;6.990;2023-10-19T01:51:36;19.93;;;12.00;;
3175;SDS011;1599;51.564;6.990;2023-10-19T01:54:06;21.67;;;13.77;;
3175;SDS011;1599;51.564;6.990;2023-10-19T01:56:32;20.17;;;11.60;;
3175;SDS011;1599;51.564;6.990;2023-10-19T01:59:00;21.60;;;11.40;;
3175;SDS011;1599;51.564;6.990;2023-10-19T02:01:29;19.10;;;12.03;;
3175;SDS011;1599;51.564;6.990;2023-10-19T02:03:58;22.03;;;13.93;;
3175;SDS011;1599;51.564;6.990;2023-10-19T02:06:27;45.50;;;15.80;;
3175;SDS011;1599;51.564;6.990;2023-10-19T02:09:00;17.30;;;11.50;;
3175;SDS011;1599;51.564;6.990;2023-10-19T02:11:34;23.67;;;12.43;;
3175;SDS011;1599;51.564;6.990;2023-10-19T02:14:06;21.80;;;13.10;;
3175;SDS011;1599;51.564;6.990;2023-10-19T02:16:39;20.50;;;12.83;;
3175;SDS011;1599;51.564;6.990;2023-10-19T02:19:07;27.37;;;13.80;;
3175;SDS011;1599;51.564;6.990;2023-10-19T02:21:32;38.00;;;16.37;;
3175;SDS011;1599;51.564;6.990;2023-10-19T02:24:03;22.47;;;12.90;;
3175;SDS011;1599;51.564;6.990;2023-10-19T02:26:29;24.83;;;14.30;;
3175;SDS011;1599;51.564;6.990;2023-10-19T02:28:56;23.20;;;12.50;;
3175;SDS011;1599;51.564;6.990;2023-10-19T02:31:23;32.03;;;14.60;;
3175;SDS011;1599;51.564;6.990;2023-10-19T02:33:52;21.17;;;13.33;;
3175;SDS011;1599;51.564;6.990;2023-10-19T02:36:26;25.97;;;13.33;;
3175;SDS011;1599;51.564;6.990;2023-10-19T02:39:05;28.50;;;14.67;;
3175;SDS011;1599;51.564;6.990;2023-10-19T02:41:34;22.67;;;12.73;;
3175;SDS011;1599;51.564;6.990;2023-10-19T02:44:13;15.10;;;10.60;;
3175;SDS011;1599;51.564;6.990;2023-10-19T02:46:43;25.30;;;12.60;;
3175;SDS011;1599;51.564;6.990;2023-10-19T02:49:17;29.60;;;12.43;;
3175;SDS011;1599;51.564;6.990;2023-10-19T02:51:45;13.17;;;10.07;;
3175;SDS011;1599;51.564;6.990;2023-10-19T02:54:22;29.20;;;14.00;;
3175;SDS011;1599;51.564;6.990;2023-10-19T02:56:55;33.10;;;13.00;;
3175;SDS011;1599;51.564;6.990;2023-10-19T02:59:24;13.97;;;10.60;;
3175;SDS011;1599;51.564;6.990;2023-10-19T03:02:00;21.93;;;11.10;;
3175;SDS011;1599;51.564;6.990;2023-10-19T03:04:32;14.60;;;9.40;;
3175;SDS011;1599;51.564;6.990;2023-10-19T03:07:04;12.73;;;8.90;;
3175;SDS011;1599;51.564;6.990;2023-10-19T03:09:32;15.30;;;9.33;;
3175;SDS011;1599;51.564;6.990;2023-10-19T03:12:01;11.37;;;7.67;;
3175;SDS011;1599;51.564;6.990;2023-10-19T03:14:29;11.23;;;7.80;;
3175;SDS011;1599;51.564;6.990;2023-10-19T03:16:56;13.40;;;8.43;;
3175;SDS011;1599;51.564;6.990;2023-10-19T03:19:25;13.83;;;8.20;;
3175;SDS011;1599;51.564;6.990;2023-10-19T03:21:51;12.00;;;7.47;;
3175;SDS011;1599;51.564;6.990;2023-10-19T03:24:20;10.03;;;7.30;;
3175;SDS011;1599;51.564;6.990;2023-10-19T03:27:04;8.67;;;6.90;;
3175;SDS011;1599;51.564;6.990;2023-10-19T03:29:38;8.57;;;6.43;;
3175;SDS011;1599;51.564;6.990;2023-10-19T03:32:05;8.53;;;6.30;;
3175;SDS011;1599;51.564;6.990;2023-10-19T03:34:32;9.87;;;7.23;;
3175;SDS011;1599;51.564;6.990;2023-10-19T03:36:58;9.70;;;7.00;;
3175;SDS011;1599;51.564;6.990;2023-10-19T03:39:31;12.03;;;6.53;;
3175;SDS011;1599;51.564;6.990;2023-10-19T03:41:59;16.97;;;7.10;;
3175;SDS011;1599;51.564;6.990;2023-10-19T03:44:25;9.60;;;5.90;;
3175;SDS011;1599;51.564;6.990;2023-10-19T03:46:51;12.17;;;6.30;;
3175;SDS011;1599;51.564;6.990;2023-10-19T03:49:22;9.60;;;5.50;;
3175;SDS011;1599;51.564;6.990;2023-10-19T03:51:55;9.53;;;5.90;;
3175;SDS011;1599;51.564;6.990;2023-10-19T03:54:25;10.47;;;5.60;;
3175;SDS011;1599;51.564;6.990;2023-10-19T03:56:52;8.73;;;5.93;;
3175;SDS011;1599;51.564;6.990;2023-10-19T03:59:20;8.57;;;5.40;;
3175;SDS011;1599;51.564;6.990;2023-10-19T04:01:46;10.20;;;6.60;;
3175;SDS011;1599;51.564;6.990;2023-10-19T04:04:13;10.77;;;7.00;;
3175;SDS011;1599;51.564;6.990;2023-10-19T04:06:39;10.10;;;6.40;;
3175;SDS011;1599;51.564;6.990;2023-10-19T04:09:05;13.40;;;7.40;;
3175;SDS011;1599;51.564;6.990;2023-10-19T04:11:31;31.00;;;8.50;;
3175;SDS011;1599;51.564;6.990;2023-10-19T04:14:01;14.57;;;7.57;;
3175;SDS011;1599;51.564;6.990;2023-10-19T04:16:28;19.87;;;6.83;;
3175;SDS011;1599;51.564;6.990;2023-10-19T04:18:56;16.60;;;8.23;;
3175;SDS011;1599;51.564;6.990;2023-10-19T04:21:23;11.23;;;6.73;;
3175;SDS011;1599;51.564;6.990;2023-10-19T04:23:48;12.77;;;7.03;;
3175;SDS011;1599;51.564;6.990;2023-10-19T04:26:14;10.03;;;6.60;;
3175;SDS011;1599;51.564;6.990;2023-10-19T04:28:43;13.17;;;7.13;;
3175;SDS011;1599;51.564;6.990;2023-10-19T04:31:10;10.90;;;6.80;;
3175;SDS011;1599;51.564;6.990;2023-10-19T04:33:39;13.30;;;7.70;;
3175;SDS011;1599;51.564;6.990;2023-10-19T04:36:07;11.00;;;7.00;;
3175;SDS011;1599;51.564;6.990;2023-10-19T04:38:36;27.63;;;8.20;;
3175;SDS011;1599;51.564;6.990;2023-10-19T04:41:03;10.70;;;5.77;;
3175;SDS011;1599;51.564;6.990;2023-10-19T04:43:34;10.93;;;6.13;;
3175;SDS011;1599;51.564;6.990;2023-10-19T04:46:06;7.47;;;5.70;;
3175;SDS011;1599;51.564;6.990;2023-10-19T04:48:36;12.60;;;6.30;;
3175;SDS011;1599;51.564;6.990;2023-10-19T04:51:05;7.67;;;4.77;;
3175;SDS011;1599;51.564;6.990;2023-10-19T04:53:32;9.67;;;5.37;;
3175;SDS011;1599;51.564;6.990;2023-10-19T04:55:58;9.80;;;5.80;;
3175;SDS011;1599;51.564;6.990;2023-10-19T04:58:28;12.87;;;5.40;;
3175;SDS011;1599;51.564;6.990;2023-10-19T05:00:54;6.30;;;5.20;;
3175;SDS011;1599;51.564;6.990;2023-10-19T05:03:21;7.37;;;4.93;;
3175;SDS011;1599;51.564;6.990;2023-10-19T05:05:46;7.20;;;5.00;;
3175;SDS011;1599;51.564;6.990;2023-10-19T05:08:12;7.53;;;5.37;;
3175;SDS011;1599;51.564;6.990;2023-10-19T05:10:38;10.33;;;5.67;;
3175;SDS011;1599;51.564;6.990;2023-10-19T05:13:05;11.67;;;5.80;;
3175;SDS011;1599;51.564;6.990;2023-10-19T05:15:31;8.20;;;5.10;;
3175;SDS011;1599;51.564;6.990;2023-10-19T05:17:58;48.07;;;9.37;;
3175;SDS011;1599;51.564;6.990;2023-10-19T05:20:25;13.20;;;6.20;;
3175;SDS011;1599;51.564;6.990;2023-10-19T05:22:50;11.27;;;6.13;;
3175;SDS011;1599;51.564;6.990;2023-10-19T05:25:16;9.00;;;5.90;;
3175;SDS011;1599;51.564;6.990;2023-10-19T05:27:42;37.47;;;8.50;;
3175;SDS011;1599;51.564;6.990;2023-10-19T05:30:10;6.53;;;4.93;;
3175;SDS011;1599;51.564;6.990;2023-10-19T05:32:37;9.70;;;5.27;;
3175;SDS011;1599;51.564;6.990;2023-10-19T05:35:03;12.20;;;5.50;;
3175;SDS011;1599;51.564;6.990;2023-10-19T05:37:30;11.13;;;5.37;;
3175;SDS011;1599;51.564;6.990;2023-10-19T05:39:56;8.47;;;5.77;;
3175;SDS011;1599;51.564;6.990;2023-10-19T05:42:22;14.30;;;5.80;;
3175;SDS011;1599;51.564;6.990;2023-10-19T05:44:48;12.10;;;6.77;;
3175;SDS011;1599;51.564;6.990;2023-10-19T05:47:14;11.00;;;5.20;;
3175;SDS011;1599;51.564;6.990;2023-10-19T05:49:39;8.83;;;5.50;;
3175;SDS011;1599;51.564;6.990;2023-10-19T05:52:05;10.77;;;6.63;;
3175;SDS011;1599;51.564;6.990;2023-10-19T05:54:31;8.57;;;6.20;;
3175;SDS011;1599;51.564;6.990;2023-10-19T05:56:57;8.90;;;5.93;;
3175;SDS011;1599;51.564;6.990;2023-10-19T05:59:23;15.23;;;6.30;;
3175;SDS011;1599;51.564;6.990;2023-10-19T06:01:51;19.03;;;6.60;;
3175;SDS011;1599;51.564;6.990;2023-10-19T06:04:17;13.43;;;6.10;;
3175;SDS011;1599;51.564;6.990;2023-10-19T06:06:43;9.00;;;5.30;;
3175;SDS011;1599;51.564;6.990;2023-10-19T06:09:09;11.83;;;6.33;;
3175;SDS011;1599;51.564;6.990;2023-10-19T06:11:35;13.37;;;5.30;;
3175;SDS011;1599;51.564;6.990;2023-10-19T06:14:03;11.23;;;5.30;;
3175;SDS011;1599;51.564;6.990;2023-10-19T06:16:32;6.93;;;4.53;;
3175;SDS011;1599;51.564;6.990;2023-10-19T06:18:59;112.93;;;13.00;;
3175;SDS011;1599;51.564;6.990;2023-10-19T06:21:25;8.60;;;5.00;;
3175;SDS011;1599;51.564;6.990;2023-10-19T06:23:51;7.70;;;4.83;;
3175;SDS011;1599;51.564;6.990;2023-10-19T06:26:18;10.90;;;4.63;;
3175;SDS011;1599;51.564;6.990;2023-10-19T06:28:44;9.60;;;4.80;;
3175;SDS011;1599;51.564;6.990;2023-10-19T06:31:10;6.47;;;3.80;;
3175;SDS011;1599;51.564;6.990;2023-10-19T06:33:36;4.97;;;4.10;;
3175;SDS011;1599;51.564;6.990;2023-10-19T06:36:06;8.70;;;4.60;;
3175;SDS011;1599;51.564;6.990;2023-10-19T06:38:32;4.87;;;3.90;;
3175;SDS011;1599;51.564;6.990;2023-10-19T06:41:09;8.77;;;5.13;;
3175;SDS011;1599;51.564;6.990;2023-10-19T06:43:39;9.03;;;4.80;;
3175;SDS011;1599;51.564;6.990;2023-10-19T06:46:05;6.77;;;5.33;;
3175;SDS011;1599;51.564;6.990;2023-10-19T06:48:31;8.10;;;5.17;;
3175;SDS011;1599;51.564;6.990;2023-10-19T06:50:57;12.80;;;5.30;;
3175;SDS011;1599;51.564;6.990;2023-10-19T06:53:23;9.13;;;4.77;;
3175;SDS011;1599;51.564;6.990;2023-10-19T06:55:49;9.53;;;4.47;;
3175;SDS011;1599;51.564;6.990;2023-10-19T06:58:15;5.67;;;4.37;;
3175;SDS011;1599;51.564;6.990;2023-10-19T07:00:44;7.70;;;4.60;;
3175;SDS011;1599;51.564;6.990;2023-10-19T07:03:10;7.13;;;4.50;;
3175;SDS011;1599;51.564;6.990;2023-10-19T07:05:36;10.53;;;4.97;;
3175;SDS011;1599;51.564;6.990;2023-10-19T07:08:02;8.70;;;5.07;;
3175;SDS011;1599;51.564;6.990;2023-10-19T07:10:31;11.00;;;5.20;;
3175;SDS011;1599;51.564;6.990;2023-10-19T07:12:59;8.67;;;4.93;;
3175;SDS011;1599;51.564;6.990;2023-10-19T07:15:25;9.60;;;4.40;;
3175;SDS011;1599;51.564;6.990;2023-10-19T07:17:52;8.23;;;4.90;;
3175;SDS011;1599;51.564;6.990;2023-10-19T07:20:19;5.50;;;4.00;;
3175;SDS011;1599;51.564;6.990;2023-10-19T07:22:53;9.30;;;4.90;;
3175;SDS011;1599;51.564;6.990;2023-10-19T07:25:20;8.30;;;5.17;;
3175;SDS011;1599;51.564;6.990;2023-10-19T07:27:48;13.93;;;5.13;;
3175;SDS011;1599;51.564;6.990;2023-10-19T07:30:15;7.13;;;4.93;;
3175;SDS011;1599;51.564;6.990;2023-10-19T07:32:47;10.40;;;5.83;;
3175;SDS011;1599;51.564;6.990;2023-10-19T07:35:19;8.53;;;4.90;;
3175;SDS011;1599;51.564;6.990;2023-10-19T07:37:47;8.40;;;5.10;;
3175;SDS011;1599;51.564;6.990;2023-10-19T07:40:15;8.30;;;5.70;;
3175;SDS011;1599;51.564;6.990;2023-10-19T07:42:42;9.40;;;4.80;;
3175;SDS011;1599;51.564;6.990;2023-10-19T07:45:09;5.93;;;4.60;;
3175;SDS011;1599;51.564;6.990;2023-10-19T07:47:37;13.10;;;5.13;;
3175;SDS011;1599;51.564;6.990;2023-10-19T07:50:10;7.37;;;5.13;;
3175;SDS011;1599;51.564;6.990;2023-10-19T07:52:40;7.33;;;4.63;;
3175;SDS011;1599;51.564;6.990;2023-10-19T07:55:14;6.90;;;4.73;;
3175;SDS011;1599;51.564;6.990;2023-10-19T07:57:42;13.60;;;5.63;;
3175;SDS011;1599;51.564;6.990;2023-10-19T08:00:08;6.50;;;4.80;;
3175;SDS011;1599;51.564;6.990;2023-10-19T08:02:38;9.30;;;5.63;;
3175;SDS011;1599;51.564;6.990;2023-10-19T08:05:10;7.73;;;5.27;;
3175;SDS011;1599;51.564;6.990;2023-10-19T08:07:40;12.67;;;5.90;;
3175;SDS011;1599;51.564;6.990;2023-10-19T08:10:12;8.87;;;4.93;;
3175;SDS011;1599;51.564;6.990;2023-10-19T08:12:41;9.20;;;5.00;;
3175;SDS011;1599;51.564;6.990;2023-10-19T08:15:09;14.03;;;6.23;;
3175;SDS011;1599;51.564;6.990;2023-10-19T08:17:43;15.23;;;5.37;;
3175;SDS011;1599;51.564;6.990;2023-10-19T08:20:12;7.60;;;5.50;;
3175;SDS011;1599;51.564;6.990;2023-10-19T08:22:45;12.77;;;6.07;;
3175;SDS011;1599;51.564;6.990;2023-10-19T08:25:12;8.30;;;5.67;;
3175;SDS011;1599;51.564;6.990;2023-10-19T08:27:39;8.03;;;5.20;;
3175;SDS011;1599;51.564;6.990;2023-10-19T08:30:17;7.40;;;5.07;;
3175;SDS011;1599;51.564;6.990;2023-10-19T08:32:46;9.50;;;5.10;;
3175;SDS011;1599;51.564;6.990;2023-10-19T08:35:13;7.20;;;5.00;;
3175;SDS011;1599;51.564;6.990;2023-10-19T08:37:39;8.17;;;5.50;;
3175;SDS011;1599;51.564;6.990;2023-10-19T08:40:07;7.43;;;5.00;;
3175;SDS011;1599;51.564;6.990;2023-10-19T08:42:40;6.50;;;5.10;;
3175;SDS011;1599;51.564;6.990;2023-10-19T08:45:13;9.17;;;5.33;;
3175;SDS011;1599;51.564;6.990;2023-10-19T08:47:47;9.90;;;5.57;;
3175;SDS011;1599;51.564;6.990;2023-10-19T08:50:23;7.50;;;4.57;;
3175;SDS011;1599;51.564;6.990;2023-10-19T08:52:55;14.83;;;5.13;;
3175;SDS011;1599;51.564;6.990;2023-10-19T08:55:27;6.30;;;4.30;;
3175;SDS011;1599;51.564;6.990;2023-10-19T08:57:55;16.73;;;9.23;;
3175;SDS011;1599;51.564;6.990;2023-10-19T09:00:23;10.90;;;6.13;;
3175;SDS011;1599;51.564;6.990;2023-10-19T09:02:53;9.43;;;5.63;;
3175;SDS011;1599;51.564;6.990;2023-10-19T09:05:19;10.90;;;6.13;;
3175;SDS011;1599;51.564;6.990;2023-10-19T09:07:48;10.50;;;5.30;;
3175;SDS011;1599;51.564;6.990;2023-10-19T09:10:23;8.50;;;5.37;;
3175;SDS011;1599;51.564;6.990;2023-10-19T09:13:02;9.70;;;6.70;;
3175;SDS011;1599;51.564;6.990;2023-10-19T09:15:34;11.33;;;5.20;;
3175;SDS011;1599;51.564;6.990;2023-10-19T09:18:15;7.80;;;4.70;;
3175;SDS011;1599;51.564;6.990;2023-10-19T09:20:43;8.73;;;4.10;;
3175;SDS011;1599;51.564;6.990;2023-10-19T09:23:32;5.20;;;3.43;;
3175;SDS011;1599;51.564;6.990;2023-10-19T09:26:01;7.10;;;3.77;;
3175;SDS011;1599;51.564;6.990;2023-10-19T09:28:30;9.67;;;3.77;;
3175;SDS011;1599;51.564;6.990;2023-10-19T09:30:59;10.33;;;4.07;;
3175;SDS011;1599;51.564;6.990;2023-10-19T09:33:25;7.70;;;3.27;;
3175;SDS011;1599;51.564;6.990;2023-10-19T09:35:52;13.37;;;4.50;;
3175;SDS011;1599;51.564;6.990;2023-10-19T09:38:21;9.40;;;4.17;;
3175;SDS011;1599;51.564;6.990;2023-10-19T09:40:49;8.63;;;3.80;;
3175;SDS011;1599;51.564;6.990;2023-10-19T09:43:28;7.47;;;3.67;;
3175;SDS011;1599;51.564;6.990;2023-10-19T09:46:09;8.87;;;4.43;;
3175;SDS011;1599;51.564;6.990;2023-10-19T09:48:41;8.03;;;3.27;;
3175;SDS011;1599;51.564;6.990;2023-10-19T09:51:10;6.00;;;3.40;;
3175;SDS011;1599;51.564;6.990;2023-10-19T09:53:37;12.00;;;3.67;;
3175;SDS011;1599;51.564;6.990;2023-10-19T09:56:06;4.17;;;2.90;;
3175;SDS011;1599;51.564;6.990;2023-10-19T09:58:39;5.97;;;4.10;;
3175;SDS011;1599;51.564;6.990;2023-10-19T10:01:11;12.10;;;3.70;;
3175;SDS011;1599;51.564;6.990;2023-10-19T10:03:50;9.37;;;4.03;;
3175;SDS011;1599;51.564;6.990;2023-10-19T10:06:17;7.43;;;4.40;;
3175;SDS011;1599;51.564;6.990;2023-10-19T10:09:18;6.20;;;3.60;;
3175;SDS011;1599;51.564;6.990;2023-10-19T10:11:48;7.17;;;3.17;;
3175;SDS011;1599;51.564;6.990;2023-10-19T10:14:24;6.50;;;3.20;;
3175;SDS011;1599;51.564;6.990;2023-10-19T10:17:00;13.73;;;4.03;;
3175;SDS011;1599;51.564;6.990;2023-10-19T10:19:27;10.57;;;3.20;;
3175;SDS011;1599;51.564;6.990;2023-10-19T10:22:03;11.87;;;3.90;;
3175;SDS011;1599;51.564;6.990;2023-10-19T10:24:46;10.40;;;3.07;;
3175;SDS011;1599;51.564;6.990;2023-10-19T10:27:13;7.97;;;2.90;;
3175;SDS011;1599;51.564;6.990;2023-10-19T10:29:54;17.17;;;9.60;;
3175;SDS011;1599;51.564;6.990;2023-10-19T10:35:11;6.93;;;3.30;;
3175;SDS011;1599;51.564;6.990;2023-10-19T10:38:02;7.60;;;3.50;;
3175;SDS011;1599;51.564;6.990;2023-10-19T10:40:49;5.73;;;2.63;;
3175;SDS011;1599;51.564;6.990;2023-10-19T10:43:15;7.27;;;3.30;;
3175;SDS011;1599;51.564;6.990;2023-10-19T10:45:43;8.17;;;3.20;;
3175;SDS011;1599;51.564;6.990;2023-10-19T10:48:13;6.37;;;3.67;;
3175;SDS011;1599;51.564;6.990;2023-10-19T10:50:40;7.60;;;3.10;;
3175;SDS011;1599;51.564;6.990;2023-10-19T10:53:11;11.17;;;3.30;;
3175;SDS011;1599;51.564;6.990;2023-10-19T10:55:38;4.40;;;2.93;;
3175;SDS011;1599;51.564;6.990;2023-10-19T10:58:04;12.03;;;3.27;;
3175;SDS011;1599;51.564;6.990;2023-10-19T11:00:30;8.03;;;3.30;;
3175;SDS011;1599;51.564;6.990;2023-10-19T11:03:06;4.73;;;2.30;;
3175;SDS011;1599;51.564;6.990;2023-10-19T11:05:33;9.23;;;3.43;;
3175;SDS011;1599;51.564;6.990;2023-10-19T11:10:39;9.80;;;4.00;;
3175;SDS011;1599;51.564;6.990;2023-10-19T11:13:08;6.57;;;3.07;;
3175;SDS011;1599;51.564;6.990;2023-10-19T11:15:36;10.17;;;2.73;;
3175;SDS011;1599;51.564;6.990;2023-10-19T11:18:04;5.47;;;2.50;;
3175;SDS011;1599;51.564;6.990;2023-10-19T11:20:34;5.50;;;2.70;;
3175;SDS011;1599;51.564;6.990;2023-10-19T11:23:00;7.73;;;2.90;;
3175;SDS011;1599;51.564;6.990;2023-10-19T11:25:27;5.70;;;2.70;;
3175;SDS011;1599;51.564;6.990;2023-10-19T11:27:55;6.70;;;2.87;;
3175;SDS011;1599;51.564;6.990;2023-10-19T11:30:22;5.60;;;2.83;;
3175;SDS011;1599;51.564;6.990;2023-10-19T11:32:53;6.80;;;2.60;;
3175;SDS011;1599;51.564;6.990;2023-10-19T11:35:25;6.50;;;2.80;;
3175;SDS011;1599;51.564;6.990;2023-10-19T11:37:53;11.27;;;3.50;;
3175;SDS011;1599;51.564;6.990;2023-10-19T11:40:21;5.57;;;2.70;;
3175;SDS011;1599;51.564;6.990;2023-10-19T11:42:48;10.13;;;2.50;;
3175;SDS011;1599;51.564;6.990;2023-10-19T11:45:15;8.20;;;2.93;;
3175;SDS011;1599;51.564;6.990;2023-10-19T11:47:43;9.23;;;2.97;;
3175;SDS011;1599;51.564;6.990;2023-10-19T11:50:10;10.20;;;2.73;;
3175;SDS011;1599;51.564;6.990;2023-10-19T11:52:40;7.00;;;2.37;;
3175;SDS011;1599;51.564;6.990;2023-10-19T11:55:07;7.77;;;2.90;;
3175;SDS011;1599;51.564;6.990;2023-10-19T11:57:33;14.27;;;3.23;;
3175;SDS011;1599;51.564;6.990;2023-10-19T12:00:01;5.93;;;2.60;;
3175;SDS011;1599;51.564;6.990;2023-10-19T12:02:34;6.83;;;3.30;;
3175;SDS011;1599;51.564;6.990;2023-10-19T12:05:03;10.67;;;3.03;;
3175;SDS011;1599;51.564;6.990;2023-10-19T12:07:34;7.33;;;2.87;;
3175;SDS011;1599;51.564;6.990;2023-10-19T12:10:04;7.57;;;2.73;;
3175;SDS011;1599;51.564;6.990;2023-10-19T12:12:35;6.97;;;3.13;;
3175;SDS011;1599;51.564;6.990;2023-10-19T12:15:05;7.83;;;3.00;;
3175;SDS011;1599;51.564;6.990;2023-10-19T12:17:32;8.63;;;3.30;;
3175;SDS011;1599;51.564;6.990;2023-10-19T12:19:59;10.73;;;3.43;;
3175;SDS011;1599;51.564;6.990;2023-10-19T12:22:25;8.17;;;3.70;;
3175;SDS011;1599;51.564;6.990;2023-10-19T12:24:57;7.83;;;2.73;;
3175;SDS011;1599;51.564;6.990;2023-10-19T12:27:24;5.67;;;3.20;;
3175;SDS011;1599;51.564;6.990;2023-10-19T12:29:50;7.03;;;2.70;;
3175;SDS011;1599;51.564;6.990;2023-10-19T12:32:19;10.53;;;3.90;;
3175;SDS011;1599;51.564;6.990;2023-10-19T12:34:46;7.17;;;3.60;;
3175;SDS011;1599;51.564;6.990;2023-10-19T12:37:18;10.53;;;3.47;;
3175;SDS011;1599;51.564;6.990;2023-10-19T12:39:44;10.07;;;3.37;;
3175;SDS011;1599;51.564;6.990;2023-10-19T12:42:14;7.33;;;3.30;;
3175;SDS011;1599;51.564;6.990;2023-10-19T12:44:40;11.37;;;3.60;;
3175;SDS011;1599;51.564;6.990;2023-10-19T12:47:09;8.33;;;3.30;;
3175;SDS011;1599;51.564;6.990;2023-10-19T12:49:39;4.97;;;2.80;;
3175;SDS011;1599;51.564;6.990;2023-10-19T12:52:06;9.40;;;6.50;;
3175;SDS011;1599;51.564;6.990;2023-10-19T12:54:33;9.40;;;3.27;;
3175;SDS011;1599;51.564;6.990;2023-10-19T12:57:00;5.33;;;2.80;;
3175;SDS011;1599;51.564;6.990;2023-10-19T12:59:28;5.93;;;3.20;;
3175;SDS011;1599;51.564;6.990;2023-10-19T13:01:55;7.80;;;3.20;;
3175;SDS011;1599;51.564;6.990;2023-10-19T13:04:23;10.43;;;3.40;;
3175;SDS011;1599;51.564;6.990;2023-10-19T13:06:50;11.13;;;3.53;;
3175;SDS011;1599;51.564;6.990;2023-10-19T13:09:17;9.90;;;3.63;;
3175;SDS011;1599;51.564;6.990;2023-10-19T13:11:55;9.20;;;3.47;;
3175;SDS011;1599;51.564;6.990;2023-10-19T13:14:32;7.00;;;2.43;;
3175;SDS011;1599;51.564;6.990;2023-10-19T13:16:59;8.07;;;2.87;;
3175;SDS011;1599;51.564;6.990;2023-10-19T13:19:25;6.33;;;3.50;;
3175;SDS011;1599;51.564;6.990;2023-10-19T13:21:51;6.80;;;2.93;;
3175;SDS011;1599;51.564;6.990;2023-10-19T13:24:19;7.40;;;2.60;;
3175;SDS011;1599;51.564;6.990;2023-10-19T13:26:48;6.70;;;3.17;;
3175;SDS011;1599;51.564;6.990;2023-10-19T13:29:14;4.50;;;2.83;;
3175;SDS011;1599;51.564;6.990;2023-10-19T13:31:40;6.20;;;3.00;;
3175;SDS011;1599;51.564;6.990;2023-10-19T13:34:13;4.70;;;3.00;;
3175;SDS011;1599;51.564;6.990;2023-10-19T13:36:42;6.00;;;2.70;;
3175;SDS011;1599;51.564;6.990;2023-10-19T13:39:10;8.33;;;3.30;;
3175;SDS011;1599;51.564;6.990;2023-10-19T13:41:41;6.57;;;3.67;;
3175;SDS011;1599;51.564;6.990;2023-10-19T13:44:07;10.23;;;3.40;;
3175;SDS011;1599;51.564;6.990;2023-10-19T13:46:33;5.47;;;3.00;;
3175;SDS011;1599;51.564;6.990;2023-10-19T13:48:58;9.30;;;3.77;;
3175;SDS011;1599;51.564;6.990;2023-10-19T13:51:25;6.27;;;3.97;;
3175;SDS011;1599;51.564;6.990;2023-10-19T13:53:51;11.13;;;3.83;;
3175;SDS011;1599;51.564;6.990;2023-10-19T13:56:17;15.93;;;4.10;;
3175;SDS011;1599;51.564;6.990;2023-10-19T13:58:43;9.80;;;3.47;;
3175;SDS011;1599;51.564;6.990;2023-10-19T14:01:11;11.97;;;3.80;;
3175;SDS011;1599;51.564;6.990;2023-10-19T14:03:38;9.83;;;4.37;;
3175;SDS011;1599;51.564;6.990;2023-10-19T14:06:04;7.70;;;4.27;;
3175;SDS011;1599;51.564;6.990;2023-10-19T14:08:30;9.50;;;4.40;;
3175;SDS011;1599;51.564;6.990;2023-10-19T14:11:02;12.00;;;4.80;;
3175;SDS011;1599;51.564;6.990;2023-10-19T14:13:28;11.40;;;4.47;;
3175;SDS011;1599;51.564;6.990;2023-10-19T14:15:55;7.33;;;3.90;;
3175;SDS011;1599;51.564;6.990;2023-10-19T14:18:21;9.93;;;4.03;;
3175;SDS011;1599;51.564;6.990;2023-10-19T14:20:47;9.90;;;3.60;;
3175;SDS011;1599;51.564;6.990;2023-10-19T14:23:13;10.80;;;4.53;;
3175;SDS011;1599;51.564;6.990;2023-10-19T14:25:39;10.50;;;4.30;;
3175;SDS011;1599;51.564;6.990;2023-10-19T14:28:06;6.23;;;4.27;;
3175;SDS011;1599;51.564;6.990;2023-10-19T14:30:33;8.67;;;3.80;;
3175;SDS011;1599;51.564;6.990;2023-10-19T14:32:59;9.60;;;4.00;;
3175;SDS011;1599;51.564;6.990;2023-10-19T14:35:25;10.63;;;4.50;;
3175;SDS011;1599;51.564;6.990;2023-10-19T14:37:53;12.27;;;4.10;;
3175;SDS011;1599;51.564;6.990;2023-10-19T14:40:22;8.67;;;4.10;;
3175;SDS011;1599;51.564;6.990;2023-10-19T14:42:51;7.30;;;3.90;;
3175;SDS011;1599;51.564;6.990;2023-10-19T14:45:25;5.70;;;3.50;;
3175;SDS011;1599;51.564;6.990;2023-10-19T14:47:56;6.67;;;3.60;;
3175;SDS011;1599;51.564;6.990;2023-10-19T14:50:24;9.33;;;4.17;;
3175;SDS011;1599;51.564;6.990;2023-10-19T14:52:52;8.67;;;4.40;;
3175;SDS011;1599;51.564;6.990;2023-10-19T14:55:20;6.83;;;4.40;;
3175;SDS011;1599;51.564;6.990;2023-10-19T14:57:46;8.10;;;4.10;;
3175;SDS011;1599;51.564;6.990;2023-10-19T15:00:15;6.40;;;3.80;;
3175;SDS011;1599;51.564;6.990;2023-10-19T15:02:52;8.20;;;4.33;;
3175;SDS011;1599;51.564;6.990;2023-10-19T15:05:20;12.07;;;3.70;;
3175;SDS011;1599;51.564;6.990;2023-10-19T15:07:52;10.00;;;4.07;;
3175;SDS011;1599;51.564;6.990;2023-10-19T15:10:20;9.07;;;4.20;;
3175;SDS011;1599;51.564;6.990;2023-10-19T15:12:50;13.10;;;4.20;;
3175;SDS011;1599;51.564;6.990;2023-10-19T15:15:17;8.77;;;3.93;;
3175;SDS011;1599;51.564;6.990;2023-10-19T15:17:43;8.90;;;3.17;;
3175;SDS011;1599;51.564;6.990;2023-10-19T15:20:10;10.27;;;4.60;;
3175;SDS011;1599;51.564;6.990;2023-10-19T15:22:43;7.53;;;3.63;;
3175;SDS011;1599;51.564;6.990;2023-10-19T15:25:10;12.57;;;4.40;;
3175;SDS011;1599;51.564;6.990;2023-10-19T15:27:40;10.80;;;4.10;;